createdAt,value
2022-08-19T00:00:53.488Z,100019.80
2022-08-19T00:03:24.352Z,100008.44
2022-08-19T00:05:55.821Z,100015.34
2022-08-19T00:08:27.081Z,100018.11
2022-08-19T00:10:58.039Z,100009.93
2022-08-19T00:13:30.740Z,100006.84
2022-08-19T00:16:02.103Z,100012.50
2022-08-19T00:18:35.960Z,100008.16
2022-08-19T00:21:08.656Z,100007.47
2022-08-19T00:23:40.081Z,100012.77
2022-08-19T00:26:11.897Z,100009.56
2022-08-19T00:28:43.360Z,100002.46
2022-08-19T00:31:14.191Z,100019.48
2022-08-19T00:33:45.629Z,100006.36
2022-08-19T00:36:17.838Z,100005.06
2022-08-19T00:38:48.996Z,100008.31
2022-08-19T00:41:22.524Z,100007.31
2022-08-19T00:44:13.905Z,100005.94
2022-08-19T00:46:55.501Z,100000.02
2022-08-19T00:49:31.283Z,99997.93
2022-08-19T00:52:11.030Z,100004.54
2022-08-19T00:54:43.600Z,100000.17
2022-08-19T00:57:17.395Z,99995.22
2022-08-19T01:00:00.530Z,99997.27
2022-08-19T01:02:25.689Z,100002.34
2022-08-19T01:04:56.888Z,100007.73
2022-08-19T01:07:28.059Z,100001.97
2022-08-19T01:10:02.036Z,99999.62
2022-08-19T01:12:33.411Z,100001.44
2022-08-19T01:15:05.861Z,99996.36
2022-08-19T01:17:38.624Z,99991.78
2022-08-19T01:20:16.967Z,99988.41
2022-08-19T01:22:54.039Z,99995.88
2022-08-19T01:25:30.999Z,99979.84
2022-08-19T01:28:07.214Z,99984.23
2022-08-19T01:30:37.311Z,99986.34
2022-08-19T01:33:08.366Z,99978.37
2022-08-19T01:35:40.958Z,99969.82
2022-08-19T01:38:14.968Z,99974.17
2022-08-19T01:40:46.569Z,99979.84
2022-08-19T01:43:17.718Z,99974.37
2022-08-19T01:45:50.298Z,99966.28
2022-08-19T01:48:21.261Z,99975.20
2022-08-19T01:50:52.322Z,99970.66
2022-08-19T01:53:23.198Z,99967.25
2022-08-19T01:55:55.870Z,99966.19
2022-08-19T01:58:31.221Z,99968.84
2022-08-19T02:01:01.501Z,99967.19
2022-08-19T02:03:32.213Z,99961.58
2022-08-19T02:06:06.504Z,99970.29
2022-08-19T02:08:39.447Z,99968.73
2022-08-19T02:11:10.613Z,99972.70
2022-08-19T02:13:41.980Z,99972.54
2022-08-19T02:16:13.170Z,99966.19
2022-08-19T02:18:44.090Z,99959.16
2022-08-19T02:21:15.767Z,99964.29
2022-08-19T02:23:48.581Z,99966.48
2022-08-19T02:26:21.269Z,99966.36
2022-08-19T02:28:52.620Z,99964.24
2022-08-19T02:31:25.808Z,99955.05
2022-08-19T02:33:58.717Z,99960.49
2022-08-19T02:36:30.283Z,99946.83
2022-08-19T02:39:01.571Z,99942.56
2022-08-19T02:41:35.281Z,99929.62
2022-08-19T02:44:30.246Z,99926.91
2022-08-19T02:46:41.380Z,99924.96
2022-08-19T02:49:13.468Z,99929.72
2022-08-19T02:51:46.440Z,99922.58
2022-08-19T02:54:17.831Z,99922.73
2022-08-19T02:56:49.298Z,99914.12
2022-08-19T02:59:20.298Z,99913.27
2022-08-19T03:01:52.860Z,99907.51
2022-08-19T03:04:24.837Z,99910.05
2022-08-19T03:06:59.575Z,99906.32
2022-08-19T03:09:28.796Z,99908.23
2022-08-19T03:11:59.854Z,99913.95
2022-08-19T03:14:35.341Z,99920.32
2022-08-19T03:17:07.578Z,99917.59
2022-08-19T03:19:39.768Z,99911.18
2022-08-19T03:22:10.876Z,99897.93
2022-08-19T03:24:41.997Z,99908.23
2022-08-19T03:27:13.777Z,99920.62
2022-08-19T03:29:46.460Z,99922.61
2022-08-19T03:32:32.675Z,99911.61
2022-08-19T03:34:52.367Z,99907.70
2022-08-19T03:37:23.948Z,99901.72
2022-08-19T03:39:55.114Z,99906.70
2022-08-19T03:42:38.779Z,99912.39
2022-08-19T03:45:00.384Z,99917.30
2022-08-19T03:47:31.968Z,99928.84
2022-08-19T03:50:03.658Z,99931.45
2022-08-19T03:52:37.339Z,99928.00
2022-08-19T03:55:09.103Z,99916.91
2022-08-19T03:57:39.976Z,99919.72
2022-08-19T04:00:13.996Z,99911.97
2022-08-19T04:02:58.166Z,99912.39
2022-08-19T04:05:18.067Z,99909.83
2022-08-19T04:07:49.128Z,99903.69
2022-08-19T04:10:21.095Z,99909.59
2022-08-19T04:12:52.258Z,99908.05
2022-08-19T04:15:23.422Z,99903.66
2022-08-19T04:17:54.478Z,99903.38
2022-08-19T04:20:25.537Z,99906.75
2022-08-19T04:22:56.597Z,99907.81
2022-08-19T04:25:27.647Z,99903.87
2022-08-19T04:27:58.402Z,99907.81
2022-08-19T04:30:29.490Z,99907.59
2022-08-19T04:33:00.772Z,99901.45
2022-08-19T04:35:33.529Z,99893.82
2022-08-19T04:38:04.488Z,99903.70
2022-08-19T04:40:53.969Z,99901.87
2022-08-19T04:43:24.817Z,99881.87
2022-08-19T04:45:56.805Z,99873.19
2022-08-19T04:48:29.098Z,99871.20
2022-08-19T04:51:01.653Z,99890.02
2022-08-19T04:53:35.544Z,99895.73
2022-08-19T04:56:12.858Z,99899.44
2022-08-19T04:58:45.848Z,99898.91
2022-08-19T05:01:19.556Z,99907.52
2022-08-19T05:03:51.286Z,99918.06
2022-08-19T05:06:23.849Z,99910.27
2022-08-19T05:08:56.252Z,99911.33
2022-08-19T05:11:33.042Z,99906.95
2022-08-19T05:14:04.206Z,99913.58
2022-08-19T05:16:36.003Z,99901.83
2022-08-19T05:19:25.142Z,99902.45
2022-08-19T05:22:15.470Z,99893.06
2022-08-19T05:25:09.279Z,99900.92
2022-08-19T05:27:18.766Z,99905.23
2022-08-19T05:29:51.158Z,99907.44
2022-08-19T05:32:23.137Z,99915.63
2022-08-19T05:34:54.092Z,99916.39
2022-08-19T05:37:26.998Z,99914.41
2022-08-19T05:39:58.621Z,99903.11
2022-08-19T05:42:29.620Z,99901.98
2022-08-19T05:45:00.821Z,99896.34
2022-08-19T05:47:31.703Z,99901.61
2022-08-19T05:50:05.063Z,99891.23
2022-08-19T05:52:37.834Z,99892.66
2022-08-19T05:55:09.798Z,99880.70
2022-08-19T05:57:42.130Z,99882.94
2022-08-19T06:00:14.349Z,99878.62
2022-08-19T06:02:45.326Z,99875.58
2022-08-19T06:05:16.412Z,99898.11
2022-08-19T06:07:47.488Z,99888.53
2022-08-19T06:10:18.631Z,99889.36
2022-08-19T06:12:50.091Z,99877.97
2022-08-19T06:15:21.054Z,99885.64
2022-08-19T06:17:52.190Z,99895.35
2022-08-19T06:20:45.939Z,99895.99
2022-08-19T06:22:56.086Z,99907.64
2022-08-19T06:25:30.440Z,99896.49
2022-08-19T06:28:14.553Z,99900.60
2022-08-19T06:30:35.288Z,99899.38
2022-08-19T06:33:09.667Z,99893.22
2022-08-19T06:38:19.201Z,99875.40
2022-08-19T06:40:50.271Z,99879.94
2022-08-19T06:43:21.118Z,99877.44
2022-08-19T06:45:53.961Z,99872.59
2022-08-19T06:48:24.772Z,99864.25
2022-08-19T06:50:57.301Z,99858.06
2022-08-19T06:53:29.650Z,99859.17
2022-08-19T06:56:02.213Z,99870.12
2022-08-19T06:58:36.478Z,99864.69
2022-08-19T07:01:09.240Z,99872.80
2022-08-19T07:03:41.216Z,99878.73
2022-08-19T07:06:39.402Z,99871.63
2022-08-19T07:08:50.136Z,99882.53
2022-08-19T07:11:22.509Z,99869.66
2022-08-19T07:13:56.812Z,99881.88
2022-08-19T07:16:29.723Z,99885.41
2022-08-19T07:19:11.870Z,99878.92
2022-08-19T07:21:33.987Z,99888.56
2022-08-19T07:24:07.332Z,99880.36
2022-08-19T07:26:44.395Z,99884.75
2022-08-19T07:29:16.389Z,99889.24
2022-08-19T07:31:47.773Z,99882.23
2022-08-19T07:34:21.338Z,99888.77
2022-08-19T07:36:54.703Z,99883.39
2022-08-19T07:39:28.822Z,99886.78
2022-08-19T07:42:01.560Z,99883.17
2022-08-19T07:44:33.079Z,99874.69
2022-08-19T07:47:05.732Z,99878.55
2022-08-19T07:49:37.245Z,99892.65
2022-08-19T07:52:10.621Z,99896.23
2022-08-19T07:54:42.547Z,99895.84
2022-08-19T07:57:13.648Z,99892.85
2022-08-19T07:59:44.871Z,99893.35
2022-08-19T08:02:16.232Z,99893.16
2022-08-19T08:05:05.399Z,99863.94
2022-08-19T08:07:56.073Z,99889.85
2022-08-19T08:10:27.109Z,99892.33
2022-08-19T08:13:10.392Z,99897.61
2022-08-19T08:15:31.355Z,99895.31
2022-08-19T08:18:02.231Z,99898.64
2022-08-19T08:20:33.671Z,99906.78
2022-08-19T08:23:23.084Z,99901.00
2022-08-19T08:26:00.470Z,99895.98
2022-08-19T08:28:31.674Z,99889.45
2022-08-19T08:31:02.836Z,99884.06
2022-08-19T08:33:36.390Z,99889.30
2022-08-19T08:36:09.291Z,99895.56
2022-08-19T08:38:41.787Z,99899.88
2022-08-19T08:41:39.455Z,99917.82
2022-08-19T08:44:26.887Z,99921.21
2022-08-19T08:47:04.170Z,99919.00
2022-08-19T08:50:03.293Z,99918.94
2022-08-19T08:52:44.658Z,99920.53
2022-08-19T08:55:21.026Z,99925.14
2022-08-19T08:57:56.643Z,99943.64
2022-08-19T09:00:37.078Z,99934.61
2022-08-19T09:03:16.706Z,99935.69
2022-08-19T09:06:11.848Z,99940.80
2022-08-19T09:08:44.111Z,99949.48
2022-08-19T09:11:42.374Z,99942.81
2022-08-19T09:14:02.788Z,99932.87
2022-08-19T09:16:37.933Z,99921.86
2022-08-19T09:19:09.813Z,99910.14
2022-08-19T09:21:40.818Z,99896.92
2022-08-19T09:24:12.729Z,99899.56
2022-08-19T09:26:48.709Z,99899.56
2022-08-19T09:29:18.561Z,99897.25
2022-08-19T09:31:49.720Z,99887.89
2022-08-19T09:34:22.163Z,99884.95
2022-08-19T09:36:55.029Z,99886.69
2022-08-19T09:39:26.026Z,99880.30
2022-08-19T09:41:59.054Z,99876.85
2022-08-19T09:44:30.261Z,99878.36
2022-08-19T09:47:01.921Z,99880.09
2022-08-19T09:49:33.558Z,99867.17
2022-08-19T09:52:05.339Z,99868.01
2022-08-19T09:54:37.155Z,99869.69
2022-08-19T09:57:08.656Z,99865.67
2022-08-19T09:59:41.431Z,99871.47
2022-08-19T10:02:13.447Z,99868.09
2022-08-19T10:05:04.453Z,99863.89
2022-08-19T10:07:37.128Z,99867.96
2022-08-19T10:10:11.050Z,99863.10
2022-08-19T10:12:48.815Z,99856.34
2022-08-19T10:15:28.852Z,99853.94
2022-08-19T10:17:56.236Z,99859.78
2022-08-19T10:20:28.673Z,99857.80
2022-08-19T10:23:01.447Z,99865.70
2022-08-19T10:25:35.599Z,99864.86
2022-08-19T10:28:10.558Z,99857.33
2022-08-19T10:30:42.852Z,99853.38
2022-08-19T10:33:15.430Z,99850.00
2022-08-19T10:35:56.442Z,99847.63
2022-08-19T10:38:20.969Z,99838.28
2022-08-19T10:40:54.419Z,99829.38
2022-08-19T10:43:26.899Z,99834.98
2022-08-19T10:45:59.860Z,99822.98
2022-08-19T10:48:31.097Z,99830.82
2022-08-19T10:51:22.905Z,99833.41
2022-08-19T10:53:53.841Z,99819.92
2022-08-19T10:56:43.359Z,99824.75
2022-08-19T10:59:15.491Z,99827.84
2022-08-19T11:01:48.091Z,99834.80
2022-08-19T11:04:29.633Z,99829.14
2022-08-19T11:06:58.509Z,99828.81
2022-08-19T11:09:34.348Z,99839.20
2022-08-19T11:12:04.749Z,99827.20
2022-08-19T11:14:38.379Z,99824.36
2022-08-19T11:17:09.587Z,99813.67
2022-08-19T11:19:40.655Z,99826.64
2022-08-19T11:22:12.445Z,99821.49
2022-08-19T11:24:45.273Z,99823.73
2022-08-19T11:27:16.517Z,99824.71
2022-08-19T11:29:47.490Z,99818.35
2022-08-19T11:32:18.884Z,99819.59
2022-08-19T11:34:50.130Z,99824.48
2022-08-19T11:37:21.299Z,99827.84
2022-08-19T11:39:53.513Z,99832.00
2022-08-19T11:42:43.012Z,99829.58
2022-08-19T11:45:15.615Z,99824.05
2022-08-19T11:47:48.646Z,99824.23
2022-08-19T11:50:20.249Z,99833.59
2022-08-19T11:52:51.498Z,99834.30
2022-08-19T11:55:22.794Z,99821.77
2022-08-19T11:57:53.953Z,99837.41
2022-08-19T12:00:25.290Z,99829.80
2022-08-19T12:02:56.726Z,99819.78
2022-08-19T12:05:27.655Z,99821.60
2022-08-19T12:07:58.861Z,99832.16
2022-08-19T12:10:31.442Z,99821.41
2022-08-19T12:13:03.239Z,99834.37
2022-08-19T12:15:42.717Z,99830.43
2022-08-19T12:18:15.624Z,99824.94
2022-08-19T12:20:49.029Z,99826.66
2022-08-19T12:23:20.305Z,99820.48
2022-08-19T12:25:53.092Z,99815.54
2022-08-19T12:28:26.667Z,99825.20
2022-08-19T12:31:00.043Z,99822.18
2022-08-19T12:33:33.866Z,99819.06
2022-08-19T12:36:07.407Z,99816.64
2022-08-19T12:38:39.161Z,99817.03
2022-08-19T12:41:13.572Z,99821.57
2022-08-19T12:43:46.150Z,99825.48
2022-08-19T12:46:19.118Z,99815.02
2022-08-19T12:48:54.106Z,99828.53
2022-08-19T12:51:23.133Z,99813.48
2022-08-19T12:53:54.314Z,99816.64
2022-08-19T12:56:25.333Z,99823.27
2022-08-19T12:58:57.254Z,99816.38
2022-08-19T13:01:29.307Z,99817.84
2022-08-19T13:04:01.019Z,99816.88
2022-08-19T13:06:31.990Z,99819.66
2022-08-19T13:09:03.171Z,99825.20
2022-08-19T13:11:34.945Z,99825.09
2022-08-19T13:14:07.709Z,99833.05
2022-08-19T13:16:39.696Z,99817.61
2022-08-19T13:19:11.010Z,99810.36
2022-08-19T13:21:42.640Z,99805.97
2022-08-19T13:24:13.732Z,99814.86
2022-08-19T13:26:45.245Z,99814.60
2022-08-19T13:29:34.453Z,99808.81
2022-08-19T13:32:23.832Z,99814.89
2022-08-19T13:34:54.980Z,99812.92
2022-08-19T13:37:44.453Z,99811.30
2022-08-19T13:40:25.384Z,99801.56
2022-08-19T13:42:58.809Z,99801.22
2022-08-19T13:45:33.255Z,99808.95
2022-08-19T13:48:08.084Z,99806.73
2022-08-19T13:50:44.822Z,99811.97
2022-08-19T13:53:16.477Z,99803.61
2022-08-19T13:55:47.989Z,99802.97
2022-08-19T13:58:19.103Z,99798.02
2022-08-19T14:00:51.135Z,99794.78
2022-08-19T14:03:22.249Z,99794.09
2022-08-19T14:05:53.620Z,99782.47
2022-08-19T14:08:24.773Z,99797.23
2022-08-19T14:10:56.182Z,99799.53
2022-08-19T14:13:27.681Z,99797.26
2022-08-19T14:16:00.231Z,99792.12
2022-08-19T14:18:31.603Z,99795.95
2022-08-19T14:21:02.996Z,99798.13
2022-08-19T14:23:34.949Z,99798.49
2022-08-19T14:26:11.409Z,99799.56
2022-08-19T14:28:43.388Z,99799.84
2022-08-19T14:31:17.807Z,99800.56
2022-08-19T14:33:51.768Z,99802.07
2022-08-19T14:36:23.419Z,99799.90
2022-08-19T14:38:54.628Z,99805.38
2022-08-19T14:41:25.992Z,99796.09
2022-08-19T14:44:33.962Z,99793.52
2022-08-19T14:50:32.574Z,99802.91
2022-08-19T14:53:12.236Z,99804.48
2022-08-19T14:55:45.613Z,99795.16
2022-08-19T14:58:29.583Z,99799.31
2022-08-19T15:01:03.543Z,99796.31
2022-08-19T15:03:37.910Z,99794.28
2022-08-19T15:06:12.561Z,99800.61
2022-08-19T15:08:46.302Z,99800.23
2022-08-19T15:11:24.412Z,99799.10
2022-08-19T15:13:56.064Z,99794.70
2022-08-19T15:16:35.772Z,99798.88
2022-08-19T15:19:07.324Z,99795.73
2022-08-19T15:21:38.855Z,99808.23
2022-08-19T15:24:11.142Z,99802.84
2022-08-19T15:26:44.456Z,99799.20
2022-08-19T15:29:16.857Z,99793.45
2022-08-19T15:31:48.126Z,99797.89
2022-08-19T15:34:20.128Z,99791.89
2022-08-19T15:36:51.779Z,99793.45
2022-08-19T15:39:24.178Z,99793.56
2022-08-19T15:41:55.330Z,99790.59
2022-08-19T15:44:27.984Z,99785.98
2022-08-19T15:47:00.652Z,99789.13
2022-08-19T15:49:31.684Z,99783.59
2022-08-19T15:52:03.017Z,99787.38
2022-08-19T15:54:34.153Z,99788.45
2022-08-19T15:57:23.061Z,99784.39
2022-08-19T16:00:12.542Z,99787.45
2022-08-19T16:03:01.402Z,99775.78
2022-08-19T16:05:51.041Z,99780.16
2022-08-19T16:08:21.998Z,99777.50
2022-08-19T16:10:52.982Z,99775.72
2022-08-19T16:13:25.424Z,99781.09
2022-08-19T16:15:58.005Z,99783.86
2022-08-19T16:18:47.648Z,99776.56
2022-08-19T16:21:18.862Z,99779.94
2022-08-19T16:23:51.933Z,99778.66
2022-08-19T16:26:22.902Z,99785.56
2022-08-19T16:28:57.764Z,99780.43
2022-08-19T16:31:30.755Z,99766.93
2022-08-19T16:34:02.210Z,99777.12
2022-08-19T16:36:34.617Z,99756.30
2022-08-19T16:39:05.775Z,99770.01
2022-08-19T16:41:37.859Z,99767.35
2022-08-19T16:44:11.000Z,99770.30
2022-08-19T16:46:42.589Z,99772.66
2022-08-19T16:49:13.798Z,99780.35
2022-08-19T16:51:45.939Z,99771.66
2022-08-19T16:54:17.758Z,99785.03
2022-08-19T16:56:50.246Z,99801.41
2022-08-19T16:59:21.286Z,99796.81
2022-08-19T17:01:53.202Z,99798.91
2022-08-19T17:04:24.433Z,99805.72
2022-08-19T17:06:57.031Z,99806.64
2022-08-19T17:09:27.818Z,99808.56
2022-08-19T17:12:00.515Z,99813.88
2022-08-19T17:14:31.556Z,99820.25
2022-08-19T17:17:02.717Z,99824.09
2022-08-19T17:19:33.966Z,99827.69
2022-08-19T17:22:05.465Z,99827.03
2022-08-19T17:24:36.712Z,99832.78
2022-08-19T17:27:08.268Z,99830.66
2022-08-19T17:29:39.947Z,99826.00
2022-08-19T17:32:12.352Z,99828.53
2022-08-19T17:34:43.378Z,99830.23
2022-08-19T17:37:16.191Z,99835.33
2022-08-19T17:39:48.660Z,99830.44
2022-08-19T17:42:20.892Z,99831.30
2022-08-19T17:44:53.493Z,99844.45
2022-08-19T17:47:27.355Z,99850.56
2022-08-19T17:49:58.361Z,99847.59
2022-08-19T17:52:30.887Z,99848.45
2022-08-19T17:55:02.338Z,99855.80
2022-08-19T17:57:33.580Z,99851.73
2022-08-19T18:00:06.168Z,99849.63
2022-08-19T18:02:46.866Z,99862.49
2022-08-19T18:05:18.696Z,99862.13
2022-08-19T18:07:52.650Z,99869.45
2022-08-19T18:10:30.830Z,99879.08
2022-08-19T18:13:02.342Z,99881.14
2022-08-19T18:15:35.263Z,99880.27
2022-08-19T18:18:11.750Z,99891.08
2022-08-19T18:20:41.112Z,99889.06
2022-08-19T18:23:44.676Z,99895.83
2022-08-19T18:25:45.454Z,99899.29
2022-08-19T18:28:16.676Z,99896.19
2022-08-19T18:30:51.006Z,99897.22
2022-08-19T18:33:22.056Z,99891.22
2022-08-19T18:35:53.615Z,99898.00
2022-08-19T18:38:43.398Z,99902.53
2022-08-19T18:41:32.483Z,99897.90
2022-08-19T18:44:21.520Z,99895.41
2022-08-19T18:47:10.896Z,99893.97
2022-08-19T18:49:41.990Z,99906.91
2022-08-19T18:52:13.025Z,99910.43
2022-08-19T18:54:45.650Z,99910.97
2022-08-19T18:57:17.165Z,99920.46
2022-08-19T18:59:48.899Z,99929.29
2022-08-19T19:02:20.578Z,99929.58
2022-08-19T19:04:52.199Z,99933.97
2022-08-19T19:07:23.804Z,99938.08
2022-08-19T19:09:56.344Z,99933.79
2022-08-19T19:12:29.753Z,99937.30
2022-08-19T19:15:02.279Z,99936.98
2022-08-19T19:17:33.921Z,99939.59
2022-08-19T19:20:06.489Z,99936.54
2022-08-19T19:22:37.729Z,99935.72
2022-08-19T19:25:09.248Z,99933.39
2022-08-19T19:27:40.919Z,99938.28
2022-08-19T19:30:14.129Z,99892.75
2022-08-19T19:32:46.777Z,99946.64
2022-08-19T19:35:19.950Z,99954.20
2022-08-19T19:37:53.607Z,99947.19
2022-08-19T19:40:25.329Z,99949.83
2022-08-19T19:42:56.688Z,99945.64
2022-08-19T19:45:28.547Z,99947.87
2022-08-19T19:48:01.066Z,99943.02
2022-08-19T19:50:32.417Z,99955.02
2022-08-19T19:53:03.842Z,99950.44
2022-08-19T19:55:35.117Z,99952.45
2022-08-19T19:58:07.535Z,99969.91
2022-08-19T20:00:39.119Z,99954.41
2022-08-19T20:03:10.893Z,99953.83
2022-08-19T20:05:42.317Z,99952.69
2022-08-19T20:08:31.510Z,99958.68
2022-08-19T20:11:07.935Z,99954.84
2022-08-19T20:13:40.717Z,99942.30
2022-08-19T20:16:13.788Z,99948.20
2022-08-19T20:18:45.528Z,99952.06
2022-08-19T20:21:17.146Z,99947.92
2022-08-19T20:24:08.971Z,99949.23
2022-08-19T20:26:32.310Z,99957.46
2022-08-19T20:29:07.262Z,99952.43
2022-08-19T20:31:29.832Z,99948.57
2022-08-19T20:34:02.827Z,99962.28
2022-08-19T20:36:34.929Z,99977.97
2022-08-19T20:39:07.228Z,99982.80
2022-08-19T20:41:38.543Z,99978.66
2022-08-19T20:44:10.277Z,99992.17
2022-08-19T20:46:42.748Z,100002.91
2022-08-19T20:49:17.131Z,99999.42
2022-08-19T20:51:48.012Z,99991.19
2022-08-19T20:54:19.229Z,99990.98
2022-08-19T20:56:50.377Z,99994.59
2022-08-19T20:59:22.029Z,99989.52
2022-08-19T21:01:54.720Z,99990.52
2022-08-19T21:04:25.929Z,99997.45
2022-08-19T21:06:58.393Z,99990.09
2022-08-19T21:09:29.688Z,99989.51
2022-08-19T21:12:01.190Z,99988.98
2022-08-19T21:14:32.725Z,99978.19
2022-08-19T21:17:03.830Z,99983.72
2022-08-19T21:19:34.788Z,99987.02
2022-08-19T21:22:06.440Z,99984.75
2022-08-19T21:24:38.795Z,99988.06
2022-08-19T21:27:11.573Z,99997.32
2022-08-19T21:29:42.635Z,100006.69
2022-08-19T21:32:14.387Z,100004.61
2022-08-19T21:34:47.408Z,100015.85
2022-08-19T21:37:25.287Z,100026.52
2022-08-19T21:39:53.471Z,100031.25
2022-08-19T21:42:25.315Z,100025.64
2022-08-19T21:44:56.359Z,100027.03
2022-08-19T21:47:28.740Z,100037.67
2022-08-19T21:49:59.674Z,100045.38
2022-08-19T21:52:31.113Z,100037.16
2022-08-19T21:55:02.309Z,100053.97
2022-08-19T21:57:33.870Z,100059.94
2022-08-19T22:00:07.772Z,100056.02
2022-08-19T22:02:40.032Z,100062.05
2022-08-19T22:05:11.319Z,100055.07
2022-08-19T22:07:43.318Z,100058.11
2022-08-19T22:10:14.498Z,100062.36
2022-08-19T22:12:51.512Z,100055.88
2022-08-19T22:15:21.641Z,100073.56
2022-08-19T22:17:52.872Z,100088.93
2022-08-19T22:20:27.439Z,100090.48
2022-08-19T22:23:02.579Z,100096.80
2022-08-19T22:25:36.581Z,100094.91
2022-08-19T22:28:10.952Z,100099.03
2022-08-19T22:30:43.804Z,100114.73
2022-08-19T22:33:22.029Z,100113.39
2022-08-19T22:35:54.478Z,100096.97
2022-08-19T22:38:26.111Z,100101.17
2022-08-19T22:40:57.909Z,100094.72
2022-08-19T22:43:32.142Z,100079.89
2022-08-19T22:46:05.223Z,100074.77
2022-08-19T22:48:36.790Z,100085.63
2022-08-19T22:51:25.842Z,100068.77
2022-08-19T22:53:58.528Z,100068.11
2022-08-19T22:56:29.827Z,100068.93
2022-08-19T22:59:00.755Z,100061.95
2022-08-19T23:01:33.101Z,100051.36
2022-08-19T23:04:05.932Z,100060.58
2022-08-19T23:06:41.427Z,100068.94
2022-08-19T23:09:10.875Z,100067.42
2022-08-19T23:11:43.414Z,100065.52
2022-08-19T23:14:15.423Z,100072.64
2022-08-19T23:16:51.075Z,100075.84
2022-08-19T23:19:22.101Z,100084.23
2022-08-19T23:21:54.151Z,100086.77
2022-08-19T23:24:25.452Z,100088.00
2022-08-19T23:27:14.440Z,100091.08
2022-08-19T23:30:03.360Z,100093.46
2022-08-19T23:32:36.872Z,100110.67
2022-08-19T23:35:08.705Z,100111.55
2022-08-19T23:37:39.807Z,100113.30
2022-08-19T23:40:11.555Z,100125.70
2022-08-19T23:42:45.709Z,100122.03
2022-08-19T23:45:23.552Z,100125.53
2022-08-19T23:47:50.226Z,100132.16
2022-08-19T23:50:21.772Z,100137.10
2022-08-19T23:52:55.469Z,100139.45
2022-08-19T23:55:32.603Z,100143.77
2022-08-19T23:58:07.187Z,100149.06
